sensor_id;sensor_type;location;lat;lon;timestamp;P1;durP1;ratioP1;P2;durP2;ratioP2
20725;SDS011;10524;48.132;8.518;2022-09-17T00:00:49;5.70;;;2.40;;
20725;SDS011;10524;48.132;8.518;2022-09-17T00:03:16;4.72;;;2.13;;
20725;SDS011;10524;48.132;8.518;2022-09-17T00:05:42;3.35;;;2.00;;
20725;SDS011;10524;48.132;8.518;2022-09-17T00:08:09;3.42;;;2.42;;
20725;SDS011;10524;48.132;8.518;2022-09-17T00:10:37;2.50;;;2.10;;
20725;SDS011;10524;48.132;8.518;2022-09-17T00:13:05;2.10;;;1.90;;
20725;SDS011;10524;48.132;8.518;2022-09-17T00:15:31;5.43;;;2.20;;
20725;SDS011;10524;48.132;8.518;2022-09-17T00:17:57;4.80;;;2.40;;
20725;SDS011;10524;48.132;8.518;2022-09-17T00:20:23;3.75;;;2.17;;
20725;SDS011;10524;48.132;8.518;2022-09-17T00:22:50;3.13;;;2.30;;
20725;SDS011;10524;48.132;8.518;2022-09-17T00:25:16;3.72;;;2.20;;
20725;SDS011;10524;48.132;8.518;2022-09-17T00:27:41;4.50;;;2.17;;
20725;SDS011;10524;48.132;8.518;2022-09-17T00:30:07;2.30;;;2.10;;
20725;SDS011;10524;48.132;8.518;2022-09-17T00:32:34;4.40;;;2.20;;
20725;SDS011;10524;48.132;8.518;2022-09-17T00:34:59;3.85;;;2.30;;
20725;SDS011;10524;48.132;8.518;2022-09-17T00:37:25;5.00;;;2.35;;
20725;SDS011;10524;48.132;8.518;2022-09-17T00:39:51;3.97;;;2.33;;
20725;SDS011;10524;48.132;8.518;2022-09-17T00:42:16;4.50;;;2.30;;
20725;SDS011;10524;48.132;8.518;2022-09-17T00:47:23;2.75;;;1.98;;
20725;SDS011;10524;48.132;8.518;2022-09-17T00:49:51;3.30;;;2.10;;
20725;SDS011;10524;48.132;8.518;2022-09-17T00:52:48;2.53;;;2.00;;
20725;SDS011;10524;48.132;8.518;2022-09-17T00:55:31;3.65;;;2.28;;
20725;SDS011;10524;48.132;8.518;2022-09-17T00:58:00;3.90;;;2.35;;
20725;SDS011;10524;48.132;8.518;2022-09-17T01:00:28;3.10;;;2.08;;
20725;SDS011;10524;48.132;8.518;2022-09-17T01:02:55;4.15;;;2.35;;
20725;SDS011;10524;48.132;8.518;2022-09-17T01:05:27;3.53;;;2.25;;
20725;SDS011;10524;48.132;8.518;2022-09-17T01:11:23;3.50;;;2.47;;
20725;SDS011;10524;48.132;8.518;2022-09-17T01:14:08;4.15;;;2.55;;
20725;SDS011;10524;48.132;8.518;2022-09-17T01:16:54;4.05;;;2.40;;
20725;SDS011;10524;48.132;8.518;2022-09-17T01:19:54;7.18;;;2.90;;
20725;SDS011;10524;48.132;8.518;2022-09-17T01:22:37;2.90;;;2.60;;
20725;SDS011;10524;48.132;8.518;2022-09-17T01:28:17;5.35;;;2.80;;
20725;SDS011;10524;48.132;8.518;2022-09-17T01:33:47;4.63;;;3.20;;
20725;SDS011;10524;48.132;8.518;2022-09-17T01:39:41;6.18;;;3.13;;
20725;SDS011;10524;48.132;8.518;2022-09-17T01:45:04;4.95;;;3.50;;
20725;SDS011;10524;48.132;8.518;2022-09-17T01:47:34;7.32;;;3.70;;
20725;SDS011;10524;48.132;8.518;2022-09-17T01:50:04;5.18;;;3.90;;
20725;SDS011;10524;48.132;8.518;2022-09-17T01:52:34;5.32;;;3.80;;
20725;SDS011;10524;48.132;8.518;2022-09-17T01:55:04;6.65;;;3.78;;
20725;SDS011;10524;48.132;8.518;2022-09-17T01:57:35;6.22;;;3.83;;
20725;SDS011;10524;48.132;8.518;2022-09-17T02:00:06;4.25;;;3.40;;
20725;SDS011;10524;48.132;8.518;2022-09-17T02:08:02;3.90;;;3.50;;
20725;SDS011;10524;48.132;8.518;2022-09-17T02:10:36;4.72;;;3.55;;
20725;SDS011;10524;48.132;8.518;2022-09-17T02:13:21;7.00;;;3.67;;
20725;SDS011;10524;48.132;8.518;2022-09-17T02:15:52;5.65;;;3.60;;
20725;SDS011;10524;48.132;8.518;2022-09-17T02:21:29;4.57;;;3.40;;
20725;SDS011;10524;48.132;8.518;2022-09-17T02:26:38;5.38;;;3.42;;
20725;SDS011;10524;48.132;8.518;2022-09-17T02:29:12;4.03;;;3.10;;
20725;SDS011;10524;48.132;8.518;2022-09-17T02:31:43;5.13;;;3.00;;
20725;SDS011;10524;48.132;8.518;2022-09-17T02:34:09;6.68;;;3.10;;
20725;SDS011;10524;48.132;8.518;2022-09-17T02:36:35;3.85;;;3.08;;
20725;SDS011;10524;48.132;8.518;2022-09-17T02:39:02;4.68;;;2.97;;
20725;SDS011;10524;48.132;8.518;2022-09-17T02:41:33;5.13;;;2.70;;
20725;SDS011;10524;48.132;8.518;2022-09-17T02:44:23;3.20;;;2.60;;
20725;SDS011;10524;48.132;8.518;2022-09-17T02:47:19;3.45;;;2.50;;
20725;SDS011;10524;48.132;8.518;2022-09-17T02:50:23;3.92;;;2.50;;
20725;SDS011;10524;48.132;8.518;2022-09-17T02:58:36;4.15;;;2.80;;
20725;SDS011;10524;48.132;8.518;2022-09-17T03:01:32;6.20;;;2.80;;
20725;SDS011;10524;48.132;8.518;2022-09-17T03:04:08;4.13;;;2.42;;
20725;SDS011;10524;48.132;8.518;2022-09-17T03:06:36;4.28;;;2.38;;
20725;SDS011;10524;48.132;8.518;2022-09-17T03:09:03;3.22;;;2.60;;
20725;SDS011;10524;48.132;8.518;2022-09-17T03:11:29;2.90;;;2.60;;
20725;SDS011;10524;48.132;8.518;2022-09-17T03:13:55;5.28;;;2.78;;
20725;SDS011;10524;48.132;8.518;2022-09-17T03:16:22;4.30;;;2.65;;
20725;SDS011;10524;48.132;8.518;2022-09-17T03:18:48;5.20;;;3.08;;
20725;SDS011;10524;48.132;8.518;2022-09-17T03:21:14;3.35;;;2.92;;
20725;SDS011;10524;48.132;8.518;2022-09-17T03:23:39;3.10;;;2.42;;
20725;SDS011;10524;48.132;8.518;2022-09-17T03:26:05;3.63;;;2.58;;
20725;SDS011;10524;48.132;8.518;2022-09-17T03:28:31;3.28;;;2.55;;
20725;SDS011;10524;48.132;8.518;2022-09-17T03:30:56;3.55;;;2.40;;
20725;SDS011;10524;48.132;8.518;2022-09-17T03:33:22;2.63;;;2.40;;
20725;SDS011;10524;48.132;8.518;2022-09-17T03:35:48;4.65;;;2.65;;
20725;SDS011;10524;48.132;8.518;2022-09-17T03:38:13;3.63;;;2.60;;
20725;SDS011;10524;48.132;8.518;2022-09-17T03:40:40;3.92;;;2.25;;
20725;SDS011;10524;48.132;8.518;2022-09-17T03:43:06;3.42;;;2.30;;
20725;SDS011;10524;48.132;8.518;2022-09-17T03:45:32;2.95;;;2.20;;
20725;SDS011;10524;48.132;8.518;2022-09-17T03:47:58;3.05;;;2.30;;
20725;SDS011;10524;48.132;8.518;2022-09-17T03:50:24;4.65;;;2.30;;
20725;SDS011;10524;48.132;8.518;2022-09-17T03:52:50;4.10;;;2.10;;
20725;SDS011;10524;48.132;8.518;2022-09-17T03:55:15;2.65;;;1.95;;
20725;SDS011;10524;48.132;8.518;2022-09-17T03:57:41;2.90;;;1.88;;
20725;SDS011;10524;48.132;8.518;2022-09-17T04:00:07;2.35;;;1.70;;
20725;SDS011;10524;48.132;8.518;2022-09-17T04:02:34;2.22;;;2.03;;
20725;SDS011;10524;48.132;8.518;2022-09-17T04:05:00;2.38;;;1.90;;
20725;SDS011;10524;48.132;8.518;2022-09-17T04:07:25;2.38;;;1.77;;
20725;SDS011;10524;48.132;8.518;2022-09-17T04:09:51;3.45;;;1.80;;
20725;SDS011;10524;48.132;8.518;2022-09-17T04:12:16;2.40;;;1.70;;
20725;SDS011;10524;48.132;8.518;2022-09-17T04:14:42;3.67;;;1.83;;
20725;SDS011;10524;48.132;8.518;2022-09-17T04:17:08;1.85;;;1.65;;
20725;SDS011;10524;48.132;8.518;2022-09-17T04:19:33;2.00;;;1.70;;
20725;SDS011;10524;48.132;8.518;2022-09-17T04:21:59;2.90;;;2.20;;
20725;SDS011;10524;48.132;8.518;2022-09-17T04:24:24;3.42;;;1.98;;
20725;SDS011;10524;48.132;8.518;2022-09-17T04:26:50;4.30;;;2.10;;
20725;SDS011;10524;48.132;8.518;2022-09-17T04:29:16;2.78;;;2.10;;
20725;SDS011;10524;48.132;8.518;2022-09-17T04:31:42;4.03;;;2.13;;
20725;SDS011;10524;48.132;8.518;2022-09-17T04:34:07;3.35;;;2.47;;
20725;SDS011;10524;48.132;8.518;2022-09-17T04:36:33;3.28;;;2.40;;
20725;SDS011;10524;48.132;8.518;2022-09-17T04:38:59;3.35;;;2.13;;
20725;SDS011;10524;48.132;8.518;2022-09-17T04:41:24;3.45;;;2.60;;
20725;SDS011;10524;48.132;8.518;2022-09-17T04:43:50;4.68;;;2.63;;
20725;SDS011;10524;48.132;8.518;2022-09-17T04:46:15;4.57;;;2.78;;
20725;SDS011;10524;48.132;8.518;2022-09-17T04:48:41;3.58;;;2.60;;
20725;SDS011;10524;48.132;8.518;2022-09-17T04:51:07;4.80;;;2.80;;
20725;SDS011;10524;48.132;8.518;2022-09-17T04:53:33;6.03;;;3.20;;
20725;SDS011;10524;48.132;8.518;2022-09-17T04:55:59;5.47;;;3.13;;
20725;SDS011;10524;48.132;8.518;2022-09-17T04:58:24;5.90;;;2.97;;
20725;SDS011;10524;48.132;8.518;2022-09-17T05:00:50;6.82;;;3.05;;
20725;SDS011;10524;48.132;8.518;2022-09-17T05:03:16;6.72;;;3.42;;
20725;SDS011;10524;48.132;8.518;2022-09-17T05:05:41;6.03;;;2.90;;
20725;SDS011;10524;48.132;8.518;2022-09-17T05:08:07;6.07;;;3.20;;
20725;SDS011;10524;48.132;8.518;2022-09-17T05:10:33;6.45;;;2.80;;
20725;SDS011;10524;48.132;8.518;2022-09-17T05:12:58;4.18;;;3.08;;
20725;SDS011;10524;48.132;8.518;2022-09-17T05:15:24;7.20;;;3.28;;
20725;SDS011;10524;48.132;8.518;2022-09-17T05:17:50;5.53;;;3.47;;
20725;SDS011;10524;48.132;8.518;2022-09-17T05:20:16;6.88;;;3.03;;
20725;SDS011;10524;48.132;8.518;2022-09-17T05:22:46;4.18;;;3.35;;
20725;SDS011;10524;48.132;8.518;2022-09-17T05:25:13;11.40;;;3.80;;
20725;SDS011;10524;48.132;8.518;2022-09-17T05:27:40;4.40;;;3.00;;
20725;SDS011;10524;48.132;8.518;2022-09-17T05:30:06;11.05;;;3.47;;
20725;SDS011;10524;48.132;8.518;2022-09-17T05:32:33;3.85;;;3.05;;
20725;SDS011;10524;48.132;8.518;2022-09-17T05:35:00;7.43;;;3.53;;
20725;SDS011;10524;48.132;8.518;2022-09-17T05:37:26;5.65;;;3.17;;
20725;SDS011;10524;48.132;8.518;2022-09-17T05:39:52;6.70;;;3.28;;
20725;SDS011;10524;48.132;8.518;2022-09-17T05:42:17;13.52;;;6.22;;
20725;SDS011;10524;48.132;8.518;2022-09-17T05:44:43;7.38;;;3.28;;
20725;SDS011;10524;48.132;8.518;2022-09-17T05:47:08;6.10;;;3.50;;
20725;SDS011;10524;48.132;8.518;2022-09-17T05:49:34;5.82;;;3.35;;
20725;SDS011;10524;48.132;8.518;2022-09-17T05:52:00;7.05;;;3.38;;
20725;SDS011;10524;48.132;8.518;2022-09-17T05:54:27;6.93;;;3.10;;
20725;SDS011;10524;48.132;8.518;2022-09-17T05:56:52;7.18;;;2.70;;
20725;SDS011;10524;48.132;8.518;2022-09-17T05:59:18;7.03;;;3.08;;
20725;SDS011;10524;48.132;8.518;2022-09-17T06:01:44;7.53;;;2.80;;
20725;SDS011;10524;48.132;8.518;2022-09-17T06:04:10;6.97;;;2.58;;
20725;SDS011;10524;48.132;8.518;2022-09-17T06:06:36;10.55;;;2.70;;
20725;SDS011;10524;48.132;8.518;2022-09-17T06:09:03;12.00;;;2.60;;
20725;SDS011;10524;48.132;8.518;2022-09-17T06:11:29;6.63;;;3.00;;
20725;SDS011;10524;48.132;8.518;2022-09-17T06:13:55;6.20;;;2.50;;
20725;SDS011;10524;48.132;8.518;2022-09-17T06:16:21;5.72;;;2.40;;
20725;SDS011;10524;48.132;8.518;2022-09-17T06:18:47;6.05;;;2.60;;
20725;SDS011;10524;48.132;8.518;2022-09-17T06:21:14;7.25;;;2.30;;
20725;SDS011;10524;48.132;8.518;2022-09-17T06:23:41;5.05;;;2.22;;
20725;SDS011;10524;48.132;8.518;2022-09-17T06:26:08;8.38;;;2.10;;
20725;SDS011;10524;48.132;8.518;2022-09-17T06:28:34;6.32;;;2.40;;
20725;SDS011;10524;48.132;8.518;2022-09-17T06:31:00;6.50;;;2.00;;
20725;SDS011;10524;48.132;8.518;2022-09-17T06:33:30;4.93;;;1.80;;
20725;SDS011;10524;48.132;8.518;2022-09-17T06:36:00;4.25;;;1.70;;
20725;SDS011;10524;48.132;8.518;2022-09-17T06:38:28;5.63;;;2.17;;
20725;SDS011;10524;48.132;8.518;2022-09-17T06:40:56;3.92;;;1.67;;
20725;SDS011;10524;48.132;8.518;2022-09-17T06:43:22;3.17;;;1.70;;
20725;SDS011;10524;48.132;8.518;2022-09-17T06:45:55;3.88;;;1.60;;
20725;SDS011;10524;48.132;8.518;2022-09-17T06:48:23;3.97;;;1.85;;
20725;SDS011;10524;48.132;8.518;2022-09-17T06:50:50;5.95;;;1.90;;
20725;SDS011;10524;48.132;8.518;2022-09-17T06:53:18;7.28;;;2.25;;
20725;SDS011;10524;48.132;8.518;2022-09-17T06:55:48;4.43;;;2.50;;
20725;SDS011;10524;48.132;8.518;2022-09-17T06:58:14;8.23;;;2.22;;
20725;SDS011;10524;48.132;8.518;2022-09-17T07:00:39;7.90;;;2.03;;
20725;SDS011;10524;48.132;8.518;2022-09-17T07:03:05;6.22;;;1.90;;
20725;SDS011;10524;48.132;8.518;2022-09-17T07:05:31;5.00;;;1.83;;
20725;SDS011;10524;48.132;8.518;2022-09-17T07:07:59;3.67;;;1.70;;
20725;SDS011;10524;48.132;8.518;2022-09-17T07:10:28;5.53;;;2.00;;
20725;SDS011;10524;48.132;8.518;2022-09-17T07:12:55;3.45;;;1.70;;
20725;SDS011;10524;48.132;8.518;2022-09-17T07:15:20;5.18;;;1.60;;
20725;SDS011;10524;48.132;8.518;2022-09-17T07:17:47;2.95;;;1.40;;
20725;SDS011;10524;48.132;8.518;2022-09-17T07:20:13;5.60;;;1.75;;
20725;SDS011;10524;48.132;8.518;2022-09-17T07:22:39;5.88;;;1.40;;
20725;SDS011;10524;48.132;8.518;2022-09-17T07:25:05;4.57;;;1.55;;
20725;SDS011;10524;48.132;8.518;2022-09-17T07:27:31;3.83;;;1.38;;
20725;SDS011;10524;48.132;8.518;2022-09-17T07:29:57;7.07;;;1.30;;
20725;SDS011;10524;48.132;8.518;2022-09-17T07:32:23;3.63;;;1.60;;
20725;SDS011;10524;48.132;8.518;2022-09-17T07:34:49;3.35;;;1.70;;
20725;SDS011;10524;48.132;8.518;2022-09-17T07:37:15;3.58;;;1.23;;
20725;SDS011;10524;48.132;8.518;2022-09-17T07:39:41;5.80;;;1.80;;
20725;SDS011;10524;48.132;8.518;2022-09-17T07:42:08;3.90;;;1.30;;
20725;SDS011;10524;48.132;8.518;2022-09-17T07:44:34;5.78;;;1.25;;
20725;SDS011;10524;48.132;8.518;2022-09-17T07:47:00;4.35;;;1.30;;
20725;SDS011;10524;48.132;8.518;2022-09-17T07:49:25;5.55;;;1.70;;
20725;SDS011;10524;48.132;8.518;2022-09-17T07:51:51;4.90;;;1.58;;
20725;SDS011;10524;48.132;8.518;2022-09-17T07:54:20;6.70;;;1.58;;
20725;SDS011;10524;48.132;8.518;2022-09-17T07:56:45;4.00;;;1.42;;
20725;SDS011;10524;48.132;8.518;2022-09-17T07:59:11;4.35;;;1.50;;
20725;SDS011;10524;48.132;8.518;2022-09-17T08:01:38;3.78;;;1.30;;
20725;SDS011;10524;48.132;8.518;2022-09-17T08:04:04;5.72;;;1.10;;
20725;SDS011;10524;48.132;8.518;2022-09-17T08:06:34;3.00;;;0.90;;
20725;SDS011;10524;48.132;8.518;2022-09-17T08:09:02;2.90;;;1.02;;
20725;SDS011;10524;48.132;8.518;2022-09-17T08:11:28;3.90;;;0.93;;
20725;SDS011;10524;48.132;8.518;2022-09-17T08:13:55;3.70;;;1.35;;
20725;SDS011;10524;48.132;8.518;2022-09-17T08:16:21;2.83;;;1.20;;
20725;SDS011;10524;48.132;8.518;2022-09-17T08:18:52;3.45;;;1.30;;
20725;SDS011;10524;48.132;8.518;2022-09-17T08:21:19;4.18;;;1.20;;
20725;SDS011;10524;48.132;8.518;2022-09-17T08:23:45;4.70;;;1.90;;
20725;SDS011;10524;48.132;8.518;2022-09-17T08:26:13;4.43;;;1.10;;
20725;SDS011;10524;48.132;8.518;2022-09-17T08:28:43;3.25;;;1.20;;
20725;SDS011;10524;48.132;8.518;2022-09-17T08:31:13;2.97;;;1.00;;
20725;SDS011;10524;48.132;8.518;2022-09-17T08:33:40;2.55;;;1.00;;
20725;SDS011;10524;48.132;8.518;2022-09-17T08:36:06;2.45;;;1.00;;
20725;SDS011;10524;48.132;8.518;2022-09-17T08:38:34;1.90;;;0.90;;
20725;SDS011;10524;48.132;8.518;2022-09-17T08:46:15;2.25;;;0.90;;
20725;SDS011;10524;48.132;8.518;2022-09-17T08:48:44;1.98;;;0.85;;
20725;SDS011;10524;48.132;8.518;2022-09-17T08:51:33;2.03;;;0.70;;
20725;SDS011;10524;48.132;8.518;2022-09-17T08:57:03;1.85;;;0.75;;
20725;SDS011;10524;48.132;8.518;2022-09-17T08:59:49;3.25;;;0.90;;
20725;SDS011;10524;48.132;8.518;2022-09-17T09:02:35;3.10;;;0.90;;
20725;SDS011;10524;48.132;8.518;2022-09-17T09:05:21;2.75;;;0.68;;
20725;SDS011;10524;48.132;8.518;2022-09-17T09:07:55;1.40;;;0.60;;
20725;SDS011;10524;48.132;8.518;2022-09-17T09:10:29;1.40;;;0.60;;
20725;SDS011;10524;48.132;8.518;2022-09-17T09:13:01;2.45;;;0.65;;
20725;SDS011;10524;48.132;8.518;2022-09-17T09:15:42;3.13;;;1.08;;
20725;SDS011;10524;48.132;8.518;2022-09-17T09:20:49;3.17;;;0.90;;
20725;SDS011;10524;48.132;8.518;2022-09-17T09:23:18;3.30;;;1.20;;
20725;SDS011;10524;48.132;8.518;2022-09-17T09:25:50;3.28;;;0.93;;
20725;SDS011;10524;48.132;8.518;2022-09-17T09:33:43;3.40;;;1.20;;
20725;SDS011;10524;48.132;8.518;2022-09-17T09:36:10;2.75;;;1.40;;
20725;SDS011;10524;48.132;8.518;2022-09-17T09:44:28;2.33;;;0.98;;
20725;SDS011;10524;48.132;8.518;2022-09-17T10:00:41;0.73;;;0.50;;
20725;SDS011;10524;48.132;8.518;2022-09-17T10:05:37;0.88;;;0.45;;
20725;SDS011;10524;48.132;8.518;2022-09-17T10:08:12;0.85;;;0.50;;
20725;SDS011;10524;48.132;8.518;2022-09-17T10:13:21;0.63;;;0.60;;
20725;SDS011;10524;48.132;8.518;2022-09-17T10:15:46;2.22;;;0.50;;
20725;SDS011;10524;48.132;8.518;2022-09-17T10:18:19;1.95;;;0.70;;
20725;SDS011;10524;48.132;8.518;2022-09-17T10:20:53;0.90;;;0.60;;
20725;SDS011;10524;48.132;8.518;2022-09-17T10:23:24;1.67;;;0.57;;
20725;SDS011;10524;48.132;8.518;2022-09-17T10:25:52;1.05;;;0.52;;
20725;SDS011;10524;48.132;8.518;2022-09-17T10:28:42;1.83;;;0.80;;
20725;SDS011;10524;48.132;8.518;2022-09-17T10:31:12;1.40;;;0.70;;
20725;SDS011;10524;48.132;8.518;2022-09-17T10:36:44;2.97;;;0.90;;
20725;SDS011;10524;48.132;8.518;2022-09-17T10:41:55;1.60;;;0.70;;
20725;SDS011;10524;48.132;8.518;2022-09-17T10:44:23;2.20;;;0.80;;
20725;SDS011;10524;48.132;8.518;2022-09-17T10:46:51;1.65;;;0.80;;
20725;SDS011;10524;48.132;8.518;2022-09-17T10:51:51;1.77;;;0.80;;
20725;SDS011;10524;48.132;8.518;2022-09-17T11:06:31;3.15;;;0.90;;
20725;SDS011;10524;48.132;8.518;2022-09-17T11:14:52;3.28;;;1.40;;
20725;SDS011;10524;48.132;8.518;2022-09-17T11:17:51;3.33;;;1.52;;
20725;SDS011;10524;48.132;8.518;2022-09-17T11:26:34;4.25;;;2.40;;
20725;SDS011;10524;48.132;8.518;2022-09-17T11:34:57;2.50;;;1.10;;
20725;SDS011;10524;48.132;8.518;2022-09-17T11:37:31;3.72;;;1.00;;
20725;SDS011;10524;48.132;8.518;2022-09-17T11:40:45;1.73;;;1.08;;
20725;SDS011;10524;48.132;8.518;2022-09-17T11:43:02;3.25;;;1.00;;
20725;SDS011;10524;48.132;8.518;2022-09-17T11:45:36;3.10;;;1.00;;
20725;SDS011;10524;48.132;8.518;2022-09-17T11:48:06;2.17;;;0.90;;
20725;SDS011;10524;48.132;8.518;2022-09-17T11:50:45;1.73;;;1.40;;
20725;SDS011;10524;48.132;8.518;2022-09-17T11:55:56;1.65;;;0.80;;
20725;SDS011;10524;48.132;8.518;2022-09-17T12:01:06;2.28;;;1.02;;
20725;SDS011;10524;48.132;8.518;2022-09-17T12:03:45;1.70;;;0.50;;
20725;SDS011;10524;48.132;8.518;2022-09-17T12:06:19;1.40;;;0.70;;
20725;SDS011;10524;48.132;8.518;2022-09-17T12:09:12;2.85;;;1.05;;
20725;SDS011;10524;48.132;8.518;2022-09-17T12:11:49;1.45;;;0.70;;
20725;SDS011;10524;48.132;8.518;2022-09-17T12:17:45;1.40;;;0.57;;
20725;SDS011;10524;48.132;8.518;2022-09-17T12:20:35;3.03;;;1.27;;
20725;SDS011;10524;48.132;8.518;2022-09-17T12:23:05;2.40;;;0.90;;
20725;SDS011;10524;48.132;8.518;2022-09-17T12:25:39;3.05;;;1.00;;
20725;SDS011;10524;48.132;8.518;2022-09-17T12:28:20;1.65;;;1.23;;
20725;SDS011;10524;48.132;8.518;2022-09-17T12:30:57;1.90;;;1.10;;
20725;SDS011;10524;48.132;8.518;2022-09-17T12:34:10;1.33;;;0.80;;
20725;SDS011;10524;48.132;8.518;2022-09-17T12:36:47;1.67;;;1.10;;
20725;SDS011;10524;48.132;8.518;2022-09-17T12:42:11;2.88;;;1.77;;
20725;SDS011;10524;48.132;8.518;2022-09-17T12:50:20;2.33;;;0.90;;
20725;SDS011;10524;48.132;8.518;2022-09-17T12:53:33;1.35;;;0.73;;
20725;SDS011;10524;48.132;8.518;2022-09-17T13:01:31;0.90;;;0.70;;
20725;SDS011;10524;48.132;8.518;2022-09-17T13:18:36;2.00;;;0.60;;
20725;SDS011;10524;48.132;8.518;2022-09-17T13:21:14;1.35;;;0.60;;
20725;SDS011;10524;48.132;8.518;2022-09-17T13:23:48;2.20;;;0.60;;
20725;SDS011;10524;48.132;8.518;2022-09-17T13:26:19;1.50;;;0.80;;
20725;SDS011;10524;48.132;8.518;2022-09-17T13:28:57;1.08;;;0.57;;
20725;SDS011;10524;48.132;8.518;2022-09-17T13:34:25;0.98;;;0.63;;
20725;SDS011;10524;48.132;8.518;2022-09-17T13:36:59;3.50;;;0.73;;
20725;SDS011;10524;48.132;8.518;2022-09-17T13:39:45;2.03;;;0.90;;
20725;SDS011;10524;48.132;8.518;2022-09-17T13:42:15;2.47;;;0.73;;
20725;SDS011;10524;48.132;8.518;2022-09-17T13:44:46;2.47;;;0.88;;
20725;SDS011;10524;48.132;8.518;2022-09-17T13:47:29;1.67;;;0.70;;
20725;SDS011;10524;48.132;8.518;2022-09-17T13:49:57;1.95;;;0.80;;
20725;SDS011;10524;48.132;8.518;2022-09-17T13:52:31;2.85;;;0.90;;
20725;SDS011;10524;48.132;8.518;2022-09-17T13:55:02;2.85;;;0.90;;
20725;SDS011;10524;48.132;8.518;2022-09-17T13:57:30;1.73;;;0.88;;
20725;SDS011;10524;48.132;8.518;2022-09-17T13:59:58;1.77;;;0.77;;
20725;SDS011;10524;48.132;8.518;2022-09-17T14:02:26;2.00;;;0.90;;
20725;SDS011;10524;48.132;8.518;2022-09-17T14:04:55;1.70;;;0.88;;
20725;SDS011;10524;48.132;8.518;2022-09-17T14:07:46;2.30;;;1.00;;
20725;SDS011;10524;48.132;8.518;2022-09-17T14:15:31;2.42;;;1.00;;
20725;SDS011;10524;48.132;8.518;2022-09-17T14:17:59;2.97;;;1.15;;
20725;SDS011;10524;48.132;8.518;2022-09-17T14:20:26;1.42;;;0.90;;
20725;SDS011;10524;48.132;8.518;2022-09-17T14:22:55;2.80;;;1.10;;
20725;SDS011;10524;48.132;8.518;2022-09-17T14:25:27;2.88;;;0.95;;
20725;SDS011;10524;48.132;8.518;2022-09-17T14:28:54;2.17;;;0.90;;
20725;SDS011;10524;48.132;8.518;2022-09-17T14:31:24;2.05;;;0.90;;
20725;SDS011;10524;48.132;8.518;2022-09-17T14:36:21;2.30;;;1.08;;
20725;SDS011;10524;48.132;8.518;2022-09-17T14:38:49;7.47;;;1.90;;
20725;SDS011;10524;48.132;8.518;2022-09-17T14:41:27;3.00;;;1.00;;
20725;SDS011;10524;48.132;8.518;2022-09-17T14:44:04;1.73;;;0.90;;
20725;SDS011;10524;48.132;8.518;2022-09-17T14:46:40;1.58;;;0.90;;
20725;SDS011;10524;48.132;8.518;2022-09-17T14:49:22;2.67;;;0.98;;
20725;SDS011;10524;48.132;8.518;2022-09-17T14:51:50;3.78;;;1.20;;
20725;SDS011;10524;48.132;8.518;2022-09-17T14:54:28;2.90;;;0.90;;
20725;SDS011;10524;48.132;8.518;2022-09-17T14:59:52;2.35;;;1.17;;
20725;SDS011;10524;48.132;8.518;2022-09-17T15:02:35;2.45;;;1.10;;
20725;SDS011;10524;48.132;8.518;2022-09-17T15:07:40;3.47;;;1.10;;
20725;SDS011;10524;48.132;8.518;2022-09-17T15:10:06;2.45;;;1.10;;
20725;SDS011;10524;48.132;8.518;2022-09-17T15:12:36;2.08;;;0.93;;
20725;SDS011;10524;48.132;8.518;2022-09-17T15:15:02;3.50;;;1.00;;
20725;SDS011;10524;48.132;8.518;2022-09-17T15:17:28;2.78;;;1.02;;
20725;SDS011;10524;48.132;8.518;2022-09-17T15:19:57;2.65;;;1.17;;
20725;SDS011;10524;48.132;8.518;2022-09-17T15:22:27;2.30;;;1.17;;
20725;SDS011;10524;48.132;8.518;2022-09-17T15:27:54;3.45;;;1.27;;
20725;SDS011;10524;48.132;8.518;2022-09-17T15:30:23;1.23;;;1.13;;
20725;SDS011;10524;48.132;8.518;2022-09-17T15:32:50;2.20;;;0.90;;
20725;SDS011;10524;48.132;8.518;2022-09-17T15:35:21;3.05;;;1.00;;
20725;SDS011;10524;48.132;8.518;2022-09-17T15:37:54;3.17;;;1.20;;
20725;SDS011;10524;48.132;8.518;2022-09-17T15:40:39;4.38;;;1.30;;
20725;SDS011;10524;48.132;8.518;2022-09-17T15:43:16;3.83;;;1.20;;
20725;SDS011;10524;48.132;8.518;2022-09-17T15:45:50;2.08;;;1.10;;
20725;SDS011;10524;48.132;8.518;2022-09-17T15:51:03;1.63;;;0.93;;
20725;SDS011;10524;48.132;8.518;2022-09-17T15:54:24;1.77;;;1.00;;
20725;SDS011;10524;48.132;8.518;2022-09-17T15:56:53;2.75;;;0.70;;
20725;SDS011;10524;48.132;8.518;2022-09-17T15:59:25;3.95;;;1.10;;
20725;SDS011;10524;48.132;8.518;2022-09-17T16:01:54;3.30;;;0.90;;
20725;SDS011;10524;48.132;8.518;2022-09-17T16:04:22;1.48;;;0.85;;
20725;SDS011;10524;48.132;8.518;2022-09-17T16:09:35;1.63;;;0.70;;
20725;SDS011;10524;48.132;8.518;2022-09-17T16:12:12;1.35;;;0.70;;
20725;SDS011;10524;48.132;8.518;2022-09-17T16:14:43;1.77;;;0.70;;
20725;SDS011;10524;48.132;8.518;2022-09-17T16:17:29;1.02;;;0.70;;
20725;SDS011;10524;48.132;8.518;2022-09-17T16:19:57;1.50;;;0.73;;
20725;SDS011;10524;48.132;8.518;2022-09-17T16:22:24;2.10;;;0.90;;
20725;SDS011;10524;48.132;8.518;2022-09-17T16:24:52;1.40;;;0.70;;
20725;SDS011;10524;48.132;8.518;2022-09-17T16:27:20;3.33;;;0.95;;
20725;SDS011;10524;48.132;8.518;2022-09-17T16:29:49;1.67;;;0.82;;
20725;SDS011;10524;48.132;8.518;2022-09-17T16:32:17;2.10;;;0.85;;
20725;SDS011;10524;48.132;8.518;2022-09-17T16:34:42;2.50;;;0.70;;
20725;SDS011;10524;48.132;8.518;2022-09-17T16:37:08;1.98;;;0.73;;
20725;SDS011;10524;48.132;8.518;2022-09-17T16:39:35;2.50;;;0.90;;
20725;SDS011;10524;48.132;8.518;2022-09-17T16:42:01;1.55;;;0.90;;
20725;SDS011;10524;48.132;8.518;2022-09-17T16:44:26;2.88;;;1.00;;
20725;SDS011;10524;48.132;8.518;2022-09-17T16:46:52;2.53;;;0.98;;
20725;SDS011;10524;48.132;8.518;2022-09-17T16:49:18;2.47;;;0.90;;
20725;SDS011;10524;48.132;8.518;2022-09-17T16:51:43;2.67;;;1.30;;
20725;SDS011;10524;48.132;8.518;2022-09-17T16:54:09;3.53;;;1.60;;
20725;SDS011;10524;48.132;8.518;2022-09-17T16:56:34;3.88;;;1.98;;
20725;SDS011;10524;48.132;8.518;2022-09-17T16:59:00;3.15;;;1.60;;
20725;SDS011;10524;48.132;8.518;2022-09-17T17:01:26;3.40;;;1.35;;
20725;SDS011;10524;48.132;8.518;2022-09-17T17:03:51;3.70;;;0.98;;
20725;SDS011;10524;48.132;8.518;2022-09-17T17:06:18;2.45;;;1.20;;
20725;SDS011;10524;48.132;8.518;2022-09-17T17:08:45;5.60;;;2.38;;
20725;SDS011;10524;48.132;8.518;2022-09-17T17:11:11;2.50;;;1.10;;
20725;SDS011;10524;48.132;8.518;2022-09-17T17:13:37;2.63;;;1.10;;
20725;SDS011;10524;48.132;8.518;2022-09-17T17:16:07;2.28;;;1.00;;
20725;SDS011;10524;48.132;8.518;2022-09-17T17:18:33;2.97;;;1.77;;
20725;SDS011;10524;48.132;8.518;2022-09-17T17:21:05;5.45;;;2.20;;
20725;SDS011;10524;48.132;8.518;2022-09-17T17:23:32;4.05;;;1.50;;
20725;SDS011;10524;48.132;8.518;2022-09-17T17:25:58;4.68;;;2.10;;
20725;SDS011;10524;48.132;8.518;2022-09-17T17:28:24;4.78;;;2.00;;
20725;SDS011;10524;48.132;8.518;2022-09-17T17:30:49;3.67;;;1.60;;
20725;SDS011;10524;48.132;8.518;2022-09-17T17:33:15;4.82;;;1.65;;
20725;SDS011;10524;48.132;8.518;2022-09-17T17:35:41;3.10;;;1.60;;
20725;SDS011;10524;48.132;8.518;2022-09-17T17:38:06;3.90;;;1.80;;
20725;SDS011;10524;48.132;8.518;2022-09-17T17:40:32;4.20;;;2.03;;
20725;SDS011;10524;48.132;8.518;2022-09-17T17:42:58;6.28;;;1.70;;
20725;SDS011;10524;48.132;8.518;2022-09-17T17:45:23;4.28;;;1.65;;
20725;SDS011;10524;48.132;8.518;2022-09-17T17:47:49;2.83;;;1.73;;
20725;SDS011;10524;48.132;8.518;2022-09-17T17:50:15;5.72;;;1.60;;
20725;SDS011;10524;48.132;8.518;2022-09-17T17:52:41;4.30;;;1.83;;
20725;SDS011;10524;48.132;8.518;2022-09-17T17:55:11;5.53;;;2.53;;
20725;SDS011;10524;48.132;8.518;2022-09-17T17:57:37;3.20;;;2.08;;
20725;SDS011;10524;48.132;8.518;2022-09-17T18:00:04;4.38;;;2.35;;
20725;SDS011;10524;48.132;8.518;2022-09-17T18:02:30;4.63;;;2.50;;